sensor_id;sensor_type;location;lat;lon;timestamp;P1;durP1;ratioP1;P2;durP2;ratioP2
54871;SDS011;43914;57.680;11.982;2023-02-15T00:01:49;19.40;;;9.50;;
54871;SDS011;43914;57.680;11.982;2023-02-15T00:04:16;20.50;;;9.30;;
54871;SDS011;43914;57.680;11.982;2023-02-15T00:06:43;22.70;;;11.10;;
54871;SDS011;43914;57.680;11.982;2023-02-15T00:09:09;25.40;;;12.50;;
54871;SDS011;43914;57.680;11.982;2023-02-15T00:11:36;24.20;;;10.70;;
54871;SDS011;43914;57.680;11.982;2023-02-15T00:14:15;23.70;;;10.70;;
54871;SDS011;43914;57.680;11.982;2023-02-15T00:16:45;25.40;;;11.70;;
54871;SDS011;43914;57.680;11.982;2023-02-15T00:19:16;25.00;;;11.90;;
54871;SDS011;43914;57.680;11.982;2023-02-15T00:21:43;23.10;;;10.90;;
54871;SDS011;43914;57.680;11.982;2023-02-15T00:24:11;25.60;;;12.30;;
54871;SDS011;43914;57.680;11.982;2023-02-15T00:26:38;27.60;;;12.40;;
54871;SDS011;43914;57.680;11.982;2023-02-15T00:29:05;23.50;;;11.10;;
54871;SDS011;43914;57.680;11.982;2023-02-15T00:31:31;21.60;;;10.80;;
54871;SDS011;43914;57.680;11.982;2023-02-15T00:34:05;23.90;;;11.00;;
54871;SDS011;43914;57.680;11.982;2023-02-15T00:36:39;24.50;;;11.20;;
54871;SDS011;43914;57.680;11.982;2023-02-15T00:39:05;26.40;;;12.50;;
54871;SDS011;43914;57.680;11.982;2023-02-15T00:41:31;28.30;;;12.30;;
54871;SDS011;43914;57.680;11.982;2023-02-15T00:43:58;24.50;;;11.30;;
54871;SDS011;43914;57.680;11.982;2023-02-15T00:46:24;26.40;;;11.40;;
54871;SDS011;43914;57.680;11.982;2023-02-15T00:48:49;22.30;;;10.40;;
54871;SDS011;43914;57.680;11.982;2023-02-15T00:51:15;27.20;;;12.60;;
54871;SDS011;43914;57.680;11.982;2023-02-15T00:53:42;24.40;;;11.80;;
54871;SDS011;43914;57.680;11.982;2023-02-15T00:56:09;23.40;;;10.80;;
54871;SDS011;43914;57.680;11.982;2023-02-15T00:58:35;24.40;;;11.40;;
54871;SDS011;43914;57.680;11.982;2023-02-15T01:01:05;23.00;;;10.50;;
54871;SDS011;43914;57.680;11.982;2023-02-15T01:03:33;22.90;;;10.30;;
54871;SDS011;43914;57.680;11.982;2023-02-15T01:05:58;28.80;;;12.90;;
54871;SDS011;43914;57.680;11.982;2023-02-15T01:08:24;29.40;;;13.70;;
54871;SDS011;43914;57.680;11.982;2023-02-15T01:10:50;29.60;;;14.30;;
54871;SDS011;43914;57.680;11.982;2023-02-15T01:13:16;28.70;;;12.80;;
54871;SDS011;43914;57.680;11.982;2023-02-15T01:15:42;28.90;;;13.50;;
54871;SDS011;43914;57.680;11.982;2023-02-15T01:18:09;26.70;;;11.60;;
54871;SDS011;43914;57.680;11.982;2023-02-15T01:20:36;22.20;;;10.70;;
54871;SDS011;43914;57.680;11.982;2023-02-15T01:23:04;24.90;;;11.90;;
54871;SDS011;43914;57.680;11.982;2023-02-15T01:25:32;26.30;;;12.50;;
54871;SDS011;43914;57.680;11.982;2023-02-15T01:27:59;27.00;;;12.80;;
54871;SDS011;43914;57.680;11.982;2023-02-15T01:30:24;26.60;;;11.90;;
54871;SDS011;43914;57.680;11.982;2023-02-15T01:32:50;27.00;;;12.60;;
54871;SDS011;43914;57.680;11.982;2023-02-15T01:35:16;30.50;;;14.30;;
54871;SDS011;43914;57.680;11.982;2023-02-15T01:37:42;27.30;;;13.30;;
54871;SDS011;43914;57.680;11.982;2023-02-15T01:40:08;27.90;;;12.10;;
54871;SDS011;43914;57.680;11.982;2023-02-15T01:42:39;25.40;;;11.80;;
54871;SDS011;43914;57.680;11.982;2023-02-15T01:45:16;27.50;;;12.60;;
54871;SDS011;43914;57.680;11.982;2023-02-15T01:50:28;26.10;;;12.60;;
54871;SDS011;43914;57.680;11.982;2023-02-15T01:53:03;25.50;;;12.00;;
54871;SDS011;43914;57.680;11.982;2023-02-15T01:55:39;23.90;;;11.80;;
54871;SDS011;43914;57.680;11.982;2023-02-15T01:58:07;24.10;;;12.00;;
54871;SDS011;43914;57.680;11.982;2023-02-15T02:00:33;26.40;;;12.10;;
54871;SDS011;43914;57.680;11.982;2023-02-15T02:02:59;25.70;;;12.80;;
54871;SDS011;43914;57.680;11.982;2023-02-15T02:05:26;27.00;;;12.90;;
54871;SDS011;43914;57.680;11.982;2023-02-15T02:07:56;26.60;;;12.40;;
54871;SDS011;43914;57.680;11.982;2023-02-15T02:10:24;25.80;;;12.80;;
54871;SDS011;43914;57.680;11.982;2023-02-15T02:12:54;25.60;;;12.00;;
54871;SDS011;43914;57.680;11.982;2023-02-15T02:15:28;23.20;;;10.70;;
54871;SDS011;43914;57.680;11.982;2023-02-15T02:35:08;23.70;;;11.80;;
54871;SDS011;43914;57.680;11.982;2023-02-15T02:42:40;25.20;;;13.00;;
54871;SDS011;43914;57.680;11.982;2023-02-15T02:47:50;33.90;;;14.80;;
54871;SDS011;43914;57.680;11.982;2023-02-15T02:50:53;28.50;;;12.50;;
54871;SDS011;43914;57.680;11.982;2023-02-15T02:53:18;24.00;;;12.30;;
54871;SDS011;43914;57.680;11.982;2023-02-15T03:00:43;26.40;;;12.40;;
54871;SDS011;43914;57.680;11.982;2023-02-15T03:03:15;27.40;;;12.50;;
54871;SDS011;43914;57.680;11.982;2023-02-15T03:05:45;25.20;;;12.90;;
54871;SDS011;43914;57.680;11.982;2023-02-15T03:08:14;25.30;;;12.60;;
54871;SDS011;43914;57.680;11.982;2023-02-15T03:10:47;25.60;;;13.50;;
54871;SDS011;43914;57.680;11.982;2023-02-15T03:13:16;26.60;;;13.00;;
54871;SDS011;43914;57.680;11.982;2023-02-15T03:15:42;27.10;;;13.50;;
54871;SDS011;43914;57.680;11.982;2023-02-15T03:18:34;28.00;;;13.80;;
54871;SDS011;43914;57.680;11.982;2023-02-15T03:21:03;28.90;;;13.30;;
54871;SDS011;43914;57.680;11.982;2023-02-15T03:23:30;30.70;;;14.10;;
54871;SDS011;43914;57.680;11.982;2023-02-15T03:25:59;30.00;;;14.30;;
54871;SDS011;43914;57.680;11.982;2023-02-15T03:28:45;28.10;;;12.80;;
54871;SDS011;43914;57.680;11.982;2023-02-15T03:31:13;31.30;;;15.20;;
54871;SDS011;43914;57.680;11.982;2023-02-15T03:33:43;29.90;;;14.70;;
54871;SDS011;43914;57.680;11.982;2023-02-15T03:36:18;28.30;;;14.40;;
54871;SDS011;43914;57.680;11.982;2023-02-15T03:39:05;25.90;;;12.60;;
54871;SDS011;43914;57.680;11.982;2023-02-15T03:41:49;33.60;;;16.20;;
54871;SDS011;43914;57.680;11.982;2023-02-15T03:44:23;28.80;;;14.00;;
54871;SDS011;43914;57.680;11.982;2023-02-15T03:46:55;30.30;;;15.60;;
54871;SDS011;43914;57.680;11.982;2023-02-15T03:52:15;30.40;;;15.50;;
54871;SDS011;43914;57.680;11.982;2023-02-15T03:54:42;26.20;;;12.90;;
54871;SDS011;43914;57.680;11.982;2023-02-15T03:57:19;29.30;;;14.10;;
54871;SDS011;43914;57.680;11.982;2023-02-15T04:00:12;28.10;;;14.40;;
54871;SDS011;43914;57.680;11.982;2023-02-15T04:05:35;28.20;;;14.60;;
54871;SDS011;43914;57.680;11.982;2023-02-15T04:08:01;35.80;;;16.50;;
54871;SDS011;43914;57.680;11.982;2023-02-15T04:10:27;32.70;;;15.70;;
54871;SDS011;43914;57.680;11.982;2023-02-15T04:13:11;32.10;;;15.60;;
54871;SDS011;43914;57.680;11.982;2023-02-15T04:15:37;36.20;;;17.30;;
54871;SDS011;43914;57.680;11.982;2023-02-15T04:18:21;34.60;;;16.20;;
54871;SDS011;43914;57.680;11.982;2023-02-15T04:20:46;31.00;;;14.90;;
54871;SDS011;43914;57.680;11.982;2023-02-15T04:23:32;36.80;;;16.40;;
54871;SDS011;43914;57.680;11.982;2023-02-15T04:26:16;34.70;;;16.20;;
54871;SDS011;43914;57.680;11.982;2023-02-15T04:28:41;38.30;;;18.10;;
54871;SDS011;43914;57.680;11.982;2023-02-15T04:31:07;34.00;;;16.50;;
54871;SDS011;43914;57.680;11.982;2023-02-15T04:33:33;35.10;;;16.80;;
54871;SDS011;43914;57.680;11.982;2023-02-15T04:36:01;37.90;;;17.30;;
54871;SDS011;43914;57.680;11.982;2023-02-15T04:38:27;38.70;;;17.50;;
54871;SDS011;43914;57.680;11.982;2023-02-15T04:40:53;37.30;;;16.50;;
54871;SDS011;43914;57.680;11.982;2023-02-15T04:43:18;36.80;;;16.90;;
54871;SDS011;43914;57.680;11.982;2023-02-15T04:45:48;35.70;;;16.90;;
54871;SDS011;43914;57.680;11.982;2023-02-15T04:48:15;32.80;;;15.00;;
54871;SDS011;43914;57.680;11.982;2023-02-15T04:50:42;39.20;;;17.50;;
54871;SDS011;43914;57.680;11.982;2023-02-15T04:53:08;31.00;;;14.20;;
54871;SDS011;43914;57.680;11.982;2023-02-15T04:55:33;38.70;;;16.30;;
54871;SDS011;43914;57.680;11.982;2023-02-15T04:57:59;36.20;;;16.30;;
54871;SDS011;43914;57.680;11.982;2023-02-15T05:00:24;37.10;;;16.80;;
54871;SDS011;43914;57.680;11.982;2023-02-15T05:02:50;39.50;;;17.80;;
54871;SDS011;43914;57.680;11.982;2023-02-15T05:05:15;34.90;;;16.10;;
54871;SDS011;43914;57.680;11.982;2023-02-15T05:07:41;35.90;;;16.10;;
54871;SDS011;43914;57.680;11.982;2023-02-15T05:10:06;36.70;;;16.10;;
54871;SDS011;43914;57.680;11.982;2023-02-15T05:12:32;33.80;;;14.80;;
54871;SDS011;43914;57.680;11.982;2023-02-15T05:14:58;35.90;;;16.40;;
54871;SDS011;43914;57.680;11.982;2023-02-15T05:17:23;33.40;;;15.10;;
54871;SDS011;43914;57.680;11.982;2023-02-15T05:19:49;33.10;;;15.00;;
54871;SDS011;43914;57.680;11.982;2023-02-15T05:22:14;35.20;;;15.90;;
54871;SDS011;43914;57.680;11.982;2023-02-15T05:24:40;37.70;;;18.50;;
54871;SDS011;43914;57.680;11.982;2023-02-15T05:27:23;41.50;;;19.60;;
54871;SDS011;43914;57.680;11.982;2023-02-15T05:30:08;38.90;;;17.10;;
54871;SDS011;43914;57.680;11.982;2023-02-15T05:32:37;35.50;;;16.50;;
54871;SDS011;43914;57.680;11.982;2023-02-15T05:35:04;39.60;;;17.20;;
54871;SDS011;43914;57.680;11.982;2023-02-15T05:37:30;36.00;;;16.00;;
54871;SDS011;43914;57.680;11.982;2023-02-15T05:39:56;40.50;;;17.40;;
54871;SDS011;43914;57.680;11.982;2023-02-15T05:42:21;35.50;;;16.00;;
54871;SDS011;43914;57.680;11.982;2023-02-15T05:44:47;34.70;;;15.00;;
54871;SDS011;43914;57.680;11.982;2023-02-15T05:47:12;38.30;;;17.70;;
54871;SDS011;43914;57.680;11.982;2023-02-15T05:49:38;38.60;;;17.90;;
54871;SDS011;43914;57.680;11.982;2023-02-15T05:52:03;35.60;;;16.60;;
54871;SDS011;43914;57.680;11.982;2023-02-15T05:54:29;34.40;;;15.70;;
54871;SDS011;43914;57.680;11.982;2023-02-15T05:56:54;35.30;;;16.10;;
54871;SDS011;43914;57.680;11.982;2023-02-15T05:59:20;32.50;;;14.20;;
54871;SDS011;43914;57.680;11.982;2023-02-15T06:01:45;35.00;;;16.60;;
54871;SDS011;43914;57.680;11.982;2023-02-15T06:04:11;37.90;;;17.70;;
54871;SDS011;43914;57.680;11.982;2023-02-15T06:06:37;38.00;;;17.80;;
54871;SDS011;43914;57.680;11.982;2023-02-15T06:09:03;34.70;;;16.90;;
54871;SDS011;43914;57.680;11.982;2023-02-15T06:11:28;31.70;;;14.40;;
54871;SDS011;43914;57.680;11.982;2023-02-15T06:13:54;34.70;;;14.30;;
54871;SDS011;43914;57.680;11.982;2023-02-15T06:16:19;31.30;;;15.00;;
54871;SDS011;43914;57.680;11.982;2023-02-15T06:18:45;31.10;;;14.90;;
54871;SDS011;43914;57.680;11.982;2023-02-15T06:21:10;30.50;;;14.50;;
54871;SDS011;43914;57.680;11.982;2023-02-15T06:23:36;32.50;;;15.30;;
54871;SDS011;43914;57.680;11.982;2023-02-15T06:26:01;33.00;;;14.60;;
54871;SDS011;43914;57.680;11.982;2023-02-15T06:28:27;30.60;;;14.60;;
54871;SDS011;43914;57.680;11.982;2023-02-15T06:30:52;33.50;;;15.30;;
54871;SDS011;43914;57.680;11.982;2023-02-15T06:33:18;37.10;;;15.60;;
54871;SDS011;43914;57.680;11.982;2023-02-15T06:35:44;32.40;;;15.20;;
54871;SDS011;43914;57.680;11.982;2023-02-15T06:38:10;34.40;;;16.80;;
54871;SDS011;43914;57.680;11.982;2023-02-15T06:40:36;34.30;;;15.30;;
54871;SDS011;43914;57.680;11.982;2023-02-15T06:43:04;30.10;;;14.60;;
54871;SDS011;43914;57.680;11.982;2023-02-15T06:45:29;31.00;;;14.70;;
54871;SDS011;43914;57.680;11.982;2023-02-15T06:47:54;30.50;;;13.80;;
54871;SDS011;43914;57.680;11.982;2023-02-15T06:50:20;29.60;;;15.10;;
54871;SDS011;43914;57.680;11.982;2023-02-15T06:52:45;34.10;;;18.00;;
54871;SDS011;43914;57.680;11.982;2023-02-15T06:55:11;31.90;;;16.00;;
54871;SDS011;43914;57.680;11.982;2023-02-15T06:57:36;30.20;;;15.50;;
54871;SDS011;43914;57.680;11.982;2023-02-15T07:00:04;28.30;;;14.10;;
54871;SDS011;43914;57.680;11.982;2023-02-15T07:02:31;36.20;;;17.80;;
54871;SDS011;43914;57.680;11.982;2023-02-15T07:04:58;33.10;;;16.00;;
54871;SDS011;43914;57.680;11.982;2023-02-15T07:07:23;32.80;;;15.50;;
54871;SDS011;43914;57.680;11.982;2023-02-15T07:09:49;31.60;;;16.60;;
54871;SDS011;43914;57.680;11.982;2023-02-15T07:12:14;39.50;;;18.80;;
54871;SDS011;43914;57.680;11.982;2023-02-15T07:14:58;34.10;;;16.40;;
54871;SDS011;43914;57.680;11.982;2023-02-15T07:17:24;29.50;;;14.20;;
54871;SDS011;43914;57.680;11.982;2023-02-15T07:19:53;28.80;;;14.60;;
54871;SDS011;43914;57.680;11.982;2023-02-15T07:22:19;28.30;;;13.80;;
54871;SDS011;43914;57.680;11.982;2023-02-15T07:24:44;25.00;;;11.90;;
54871;SDS011;43914;57.680;11.982;2023-02-15T07:27:10;34.40;;;15.50;;
54871;SDS011;43914;57.680;11.982;2023-02-15T07:29:35;29.60;;;13.80;;
54871;SDS011;43914;57.680;11.982;2023-02-15T07:32:01;33.40;;;15.50;;
54871;SDS011;43914;57.680;11.982;2023-02-15T07:34:26;34.40;;;15.90;;
54871;SDS011;43914;57.680;11.982;2023-02-15T07:36:52;32.80;;;15.10;;
54871;SDS011;43914;57.680;11.982;2023-02-15T07:39:19;31.00;;;14.20;;
54871;SDS011;43914;57.680;11.982;2023-02-15T07:41:44;30.10;;;14.30;;
54871;SDS011;43914;57.680;11.982;2023-02-15T07:44:14;31.00;;;14.80;;
54871;SDS011;43914;57.680;11.982;2023-02-15T07:46:40;36.40;;;17.40;;
54871;SDS011;43914;57.680;11.982;2023-02-15T07:49:05;30.70;;;14.90;;
54871;SDS011;43914;57.680;11.982;2023-02-15T07:51:31;38.70;;;18.20;;
54871;SDS011;43914;57.680;11.982;2023-02-15T07:53:56;35.60;;;16.70;;
54871;SDS011;43914;57.680;11.982;2023-02-15T07:56:22;29.80;;;14.00;;
54871;SDS011;43914;57.680;11.982;2023-02-15T07:58:48;30.00;;;14.30;;
54871;SDS011;43914;57.680;11.982;2023-02-15T08:01:17;33.20;;;15.50;;
54871;SDS011;43914;57.680;11.982;2023-02-15T08:03:56;36.60;;;17.10;;
54871;SDS011;43914;57.680;11.982;2023-02-15T08:06:23;33.70;;;16.20;;
54871;SDS011;43914;57.680;11.982;2023-02-15T08:08:52;36.00;;;17.30;;
54871;SDS011;43914;57.680;11.982;2023-02-15T08:16:36;33.50;;;14.40;;
54871;SDS011;43914;57.680;11.982;2023-02-15T08:19:03;30.60;;;13.20;;
54871;SDS011;43914;57.680;11.982;2023-02-15T08:21:33;33.60;;;15.80;;
54871;SDS011;43914;57.680;11.982;2023-02-15T08:24:00;35.00;;;15.20;;
54871;SDS011;43914;57.680;11.982;2023-02-15T08:26:26;36.70;;;16.60;;
54871;SDS011;43914;57.680;11.982;2023-02-15T08:28:53;36.20;;;17.10;;
54871;SDS011;43914;57.680;11.982;2023-02-15T08:31:18;36.50;;;16.50;;
54871;SDS011;43914;57.680;11.982;2023-02-15T08:33:45;39.30;;;18.30;;
54871;SDS011;43914;57.680;11.982;2023-02-15T08:36:12;39.90;;;17.90;;
54871;SDS011;43914;57.680;11.982;2023-02-15T08:38:40;33.70;;;14.90;;
54871;SDS011;43914;57.680;11.982;2023-02-15T08:41:10;32.70;;;14.80;;
54871;SDS011;43914;57.680;11.982;2023-02-15T08:43:36;33.50;;;14.90;;
54871;SDS011;43914;57.680;11.982;2023-02-15T08:46:01;36.30;;;16.40;;
54871;SDS011;43914;57.680;11.982;2023-02-15T08:48:27;33.20;;;15.50;;
54871;SDS011;43914;57.680;11.982;2023-02-15T08:50:52;31.90;;;14.20;;
54871;SDS011;43914;57.680;11.982;2023-02-15T08:53:17;36.60;;;17.00;;
54871;SDS011;43914;57.680;11.982;2023-02-15T08:55:46;36.20;;;17.20;;
54871;SDS011;43914;57.680;11.982;2023-02-15T08:58:12;39.80;;;17.00;;
54871;SDS011;43914;57.680;11.982;2023-02-15T09:00:38;34.90;;;16.50;;
54871;SDS011;43914;57.680;11.982;2023-02-15T09:03:03;40.80;;;18.60;;
54871;SDS011;43914;57.680;11.982;2023-02-15T09:05:31;33.10;;;15.20;;
54871;SDS011;43914;57.680;11.982;2023-02-15T09:07:56;33.40;;;15.40;;
54871;SDS011;43914;57.680;11.982;2023-02-15T09:10:22;40.20;;;17.70;;
54871;SDS011;43914;57.680;11.982;2023-02-15T09:12:47;33.60;;;15.60;;
54871;SDS011;43914;57.680;11.982;2023-02-15T09:15:15;35.80;;;16.70;;
54871;SDS011;43914;57.680;11.982;2023-02-15T09:17:40;36.90;;;16.80;;
54871;SDS011;43914;57.680;11.982;2023-02-15T09:20:06;35.10;;;16.20;;
54871;SDS011;43914;57.680;11.982;2023-02-15T09:22:32;35.70;;;16.60;;
54871;SDS011;43914;57.680;11.982;2023-02-15T09:24:57;36.60;;;16.50;;
54871;SDS011;43914;57.680;11.982;2023-02-15T09:27:23;33.40;;;14.30;;
54871;SDS011;43914;57.680;11.982;2023-02-15T09:29:48;37.30;;;17.10;;
54871;SDS011;43914;57.680;11.982;2023-02-15T09:32:13;39.50;;;18.10;;
54871;SDS011;43914;57.680;11.982;2023-02-15T09:34:40;36.60;;;17.20;;
54871;SDS011;43914;57.680;11.982;2023-02-15T09:37:05;37.90;;;18.50;;
54871;SDS011;43914;57.680;11.982;2023-02-15T09:39:31;41.00;;;18.00;;
54871;SDS011;43914;57.680;11.982;2023-02-15T10:04:29;34.70;;;16.00;;
54871;SDS011;43914;57.680;11.982;2023-02-15T10:26:45;32.60;;;16.00;;
54871;SDS011;43914;57.680;11.982;2023-02-15T10:29:34;37.80;;;18.90;;
54871;SDS011;43914;57.680;11.982;2023-02-15T10:35:04;31.80;;;15.40;;
54871;SDS011;43914;57.680;11.982;2023-02-15T10:40:19;38.70;;;19.60;;
54871;SDS011;43914;57.680;11.982;2023-02-15T10:50:48;34.00;;;15.80;;
54871;SDS011;43914;57.680;11.982;2023-02-15T11:01:37;38.70;;;18.40;;
54871;SDS011;43914;57.680;11.982;2023-02-15T11:07:02;34.60;;;17.50;;
54871;SDS011;43914;57.680;11.982;2023-02-15T11:09:37;32.50;;;16.30;;
54871;SDS011;43914;57.680;11.982;2023-02-15T11:12:08;35.50;;;16.10;;
54871;SDS011;43914;57.680;11.982;2023-02-15T11:14:39;32.40;;;16.00;;
54871;SDS011;43914;57.680;11.982;2023-02-15T11:17:14;32.40;;;15.20;;
54871;SDS011;43914;57.680;11.982;2023-02-15T11:19:54;32.30;;;15.40;;
54871;SDS011;43914;57.680;11.982;2023-02-15T11:22:27;34.70;;;14.00;;
54871;SDS011;43914;57.680;11.982;2023-02-15T11:24:55;31.80;;;14.50;;
54871;SDS011;43914;57.680;11.982;2023-02-15T11:27:25;34.50;;;14.20;;
54871;SDS011;43914;57.680;11.982;2023-02-15T11:29:57;33.60;;;14.60;;
54871;SDS011;43914;57.680;11.982;2023-02-15T11:32:33;29.90;;;13.80;;
54871;SDS011;43914;57.680;11.982;2023-02-15T11:35:26;30.50;;;14.00;;
54871;SDS011;43914;57.680;11.982;2023-02-15T11:38:06;34.70;;;16.10;;
54871;SDS011;43914;57.680;11.982;2023-02-15T11:40:45;33.80;;;14.20;;
54871;SDS011;43914;57.680;11.982;2023-02-15T11:43:16;34.00;;;14.50;;
54871;SDS011;43914;57.680;11.982;2023-02-15T11:45:47;31.80;;;13.70;;
54871;SDS011;43914;57.680;11.982;2023-02-15T11:48:13;34.70;;;15.60;;
54871;SDS011;43914;57.680;11.982;2023-02-15T11:50:40;35.90;;;16.00;;
54871;SDS011;43914;57.680;11.982;2023-02-15T11:53:15;30.60;;;14.20;;
54871;SDS011;43914;57.680;11.982;2023-02-15T11:55:43;29.60;;;13.50;;
54871;SDS011;43914;57.680;11.982;2023-02-15T12:03:50;29.70;;;14.50;;
54871;SDS011;43914;57.680;11.982;2023-02-15T12:11:54;35.70;;;16.10;;
54871;SDS011;43914;57.680;11.982;2023-02-15T12:14:54;32.10;;;15.60;;
54871;SDS011;43914;57.680;11.982;2023-02-15T12:17:25;36.20;;;16.00;;
54871;SDS011;43914;57.680;11.982;2023-02-15T12:19:55;31.00;;;13.20;;
54871;SDS011;43914;57.680;11.982;2023-02-15T12:22:24;37.00;;;17.10;;
54871;SDS011;43914;57.680;11.982;2023-02-15T12:24:55;37.50;;;16.40;;
54871;SDS011;43914;57.680;11.982;2023-02-15T12:27:27;37.50;;;17.20;;
54871;SDS011;43914;57.680;11.982;2023-02-15T12:29:57;41.60;;;19.90;;
54871;SDS011;43914;57.680;11.982;2023-02-15T12:35:40;36.90;;;16.30;;
54871;SDS011;43914;57.680;11.982;2023-02-15T12:40:38;36.40;;;16.50;;
54871;SDS011;43914;57.680;11.982;2023-02-15T12:43:08;39.80;;;19.60;;
54871;SDS011;43914;57.680;11.982;2023-02-15T12:45:50;38.90;;;17.80;;
54871;SDS011;43914;57.680;11.982;2023-02-15T12:48:17;30.40;;;15.70;;
54871;SDS011;43914;57.680;11.982;2023-02-15T12:50:48;35.40;;;17.40;;
54871;SDS011;43914;57.680;11.982;2023-02-15T12:58:22;38.20;;;16.90;;
54871;SDS011;43914;57.680;11.982;2023-02-15T13:03:28;32.90;;;16.40;;
54871;SDS011;43914;57.680;11.982;2023-02-15T13:05:55;40.60;;;18.90;;
54871;SDS011;43914;57.680;11.982;2023-02-15T13:08:31;41.70;;;19.00;;
54871;SDS011;43914;57.680;11.982;2023-02-15T13:11:06;36.10;;;16.60;;
54871;SDS011;43914;57.680;11.982;2023-02-15T13:13:35;32.70;;;15.40;;
54871;SDS011;43914;57.680;11.982;2023-02-15T13:16:16;34.60;;;15.50;;
54871;SDS011;43914;57.680;11.982;2023-02-15T13:18:56;29.90;;;14.60;;
54871;SDS011;43914;57.680;11.982;2023-02-15T13:21:24;32.10;;;15.90;;
54871;SDS011;43914;57.680;11.982;2023-02-15T13:23:57;35.70;;;16.20;;
54871;SDS011;43914;57.680;11.982;2023-02-15T13:26:26;39.30;;;17.80;;
54871;SDS011;43914;57.680;11.982;2023-02-15T13:28:56;39.80;;;17.80;;
54871;SDS011;43914;57.680;11.982;2023-02-15T13:31:30;36.10;;;16.90;;
54871;SDS011;43914;57.680;11.982;2023-02-15T13:36:41;37.80;;;18.10;;
54871;SDS011;43914;57.680;11.982;2023-02-15T13:39:33;37.40;;;17.60;;
54871;SDS011;43914;57.680;11.982;2023-02-15T13:44:52;33.50;;;14.90;;
54871;SDS011;43914;57.680;11.982;2023-02-15T13:47:45;39.50;;;17.00;;
54871;SDS011;43914;57.680;11.982;2023-02-15T13:55:51;32.20;;;14.10;;
54871;SDS011;43914;57.680;11.982;2023-02-15T14:09:43;34.60;;;16.10;;
54871;SDS011;43914;57.680;11.982;2023-02-15T14:18:34;27.60;;;12.90;;
54871;SDS011;43914;57.680;11.982;2023-02-15T14:20:56;36.60;;;16.20;;
54871;SDS011;43914;57.680;11.982;2023-02-15T14:31:51;34.30;;;16.60;;
54871;SDS011;43914;57.680;11.982;2023-02-15T14:34:22;36.30;;;16.30;;
54871;SDS011;43914;57.680;11.982;2023-02-15T14:36:52;33.60;;;15.10;;
54871;SDS011;43914;57.680;11.982;2023-02-15T14:39:36;28.80;;;13.50;;
54871;SDS011;43914;57.680;11.982;2023-02-15T14:45:20;30.80;;;13.70;;
54871;SDS011;43914;57.680;11.982;2023-02-15T14:48:07;31.30;;;14.20;;
54871;SDS011;43914;57.680;11.982;2023-02-15T14:50:40;30.60;;;15.00;;
54871;SDS011;43914;57.680;11.982;2023-02-15T14:53:24;26.60;;;12.10;;
54871;SDS011;43914;57.680;11.982;2023-02-15T14:56:20;30.60;;;14.70;;
54871;SDS011;43914;57.680;11.982;2023-02-15T15:01:16;35.00;;;15.20;;
54871;SDS011;43914;57.680;11.982;2023-02-15T15:04:02;30.10;;;15.00;;
54871;SDS011;43914;57.680;11.982;2023-02-15T15:06:34;32.50;;;15.60;;
54871;SDS011;43914;57.680;11.982;2023-02-15T15:09:14;35.20;;;15.90;;
54871;SDS011;43914;57.680;11.982;2023-02-15T15:11:49;27.70;;;12.90;;
54871;SDS011;43914;57.680;11.982;2023-02-15T15:16:57;37.60;;;16.40;;
54871;SDS011;43914;57.680;11.982;2023-02-15T15:22:19;34.60;;;15.30;;
54871;SDS011;43914;57.680;11.982;2023-02-15T15:24:47;34.30;;;14.80;;
54871;SDS011;43914;57.680;11.982;2023-02-15T15:48:57;36.70;;;15.30;;
54871;SDS011;43914;57.680;11.982;2023-02-15T15:51:29;36.60;;;15.90;;
54871;SDS011;43914;57.680;11.982;2023-02-15T15:53:58;38.30;;;16.10;;
54871;SDS011;43914;57.680;11.982;2023-02-15T15:56:30;39.00;;;16.00;;
54871;SDS011;43914;57.680;11.982;2023-02-15T15:59:06;30.20;;;13.00;;
54871;SDS011;43914;57.680;11.982;2023-02-15T16:01:40;36.80;;;15.10;;
54871;SDS011;43914;57.680;11.982;2023-02-15T16:04:28;37.70;;;17.10;;
54871;SDS011;43914;57.680;11.982;2023-02-15T16:06:56;30.00;;;14.00;;
54871;SDS011;43914;57.680;11.982;2023-02-15T16:09:26;35.80;;;15.20;;
54871;SDS011;43914;57.680;11.982;2023-02-15T16:11:53;36.50;;;16.50;;
54871;SDS011;43914;57.680;11.982;2023-02-15T16:14:26;30.30;;;14.80;;
54871;SDS011;43914;57.680;11.982;2023-02-15T16:16:57;36.60;;;16.20;;
54871;SDS011;43914;57.680;11.982;2023-02-15T16:19:35;32.90;;;14.70;;
54871;SDS011;43914;57.680;11.982;2023-02-15T16:22:07;35.60;;;15.20;;
54871;SDS011;43914;57.680;11.982;2023-02-15T16:27:15;27.30;;;11.60;;
54871;SDS011;43914;57.680;11.982;2023-02-15T16:29:58;36.30;;;15.80;;
54871;SDS011;43914;57.680;11.982;2023-02-15T16:32:35;38.60;;;15.50;;
54871;SDS011;43914;57.680;11.982;2023-02-15T16:35:02;36.20;;;15.30;;
54871;SDS011;43914;57.680;11.982;2023-02-15T16:37:32;44.50;;;17.20;;
54871;SDS011;43914;57.680;11.982;2023-02-15T16:42:49;37.30;;;16.40;;
54871;SDS011;43914;57.680;11.982;2023-02-15T16:45:16;40.20;;;17.20;;
54871;SDS011;43914;57.680;11.982;2023-02-15T16:47:45;48.20;;;18.30;;
54871;SDS011;43914;57.680;11.982;2023-02-15T16:50:24;36.40;;;14.00;;
54871;SDS011;43914;57.680;11.982;2023-02-15T16:52:55;41.60;;;17.90;;
54871;SDS011;43914;57.680;11.982;2023-02-15T16:55:26;36.60;;;15.20;;
54871;SDS011;43914;57.680;11.982;2023-02-15T16:58:16;38.30;;;16.80;;
54871;SDS011;43914;57.680;11.982;2023-02-15T17:00:42;39.00;;;17.00;;
54871;SDS011;43914;57.680;11.982;2023-02-15T17:05:48;39.50;;;16.00;;
54871;SDS011;43914;57.680;11.982;2023-02-15T17:16:33;47.30;;;18.00;;
54871;SDS011;43914;57.680;11.982;2023-02-15T17:19:03;41.70;;;18.10;;
54871;SDS011;43914;57.680;11.982;2023-02-15T17:21:40;45.90;;;17.80;;
54871;SDS011;43914;57.680;11.982;2023-02-15T17:24:18;42.00;;;16.60;;
54871;SDS011;43914;57.680;11.982;2023-02-15T17:27:00;47.20;;;17.70;;
54871;SDS011;43914;57.680;11.982;2023-02-15T17:29:37;47.10;;;18.30;;
54871;SDS011;43914;57.680;11.982;2023-02-15T17:32:05;45.60;;;18.00;;
54871;SDS011;43914;57.680;11.982;2023-02-15T17:37:30;48.50;;;16.50;;
54871;SDS011;43914;57.680;11.982;2023-02-15T17:42:54;45.10;;;18.00;;
54871;SDS011;43914;57.680;11.982;2023-02-15T17:45:20;49.10;;;18.40;;
54871;SDS011;43914;57.680;11.982;2023-02-15T17:47:48;40.40;;;16.60;;
54871;SDS011;43914;57.680;11.982;2023-02-15T17:50:18;43.90;;;17.10;;
54871;SDS011;43914;57.680;11.982;2023-02-15T17:52:49;40.70;;;17.30;;
54871;SDS011;43914;57.680;11.982;2023-02-15T17:55:17;37.10;;;16.30;;
54871;SDS011;43914;57.680;11.982;2023-02-15T17:58:00;44.30;;;17.30;;
54871;SDS011;43914;57.680;11.982;2023-02-15T18:00:28;41.30;;;16.30;;
54871;SDS011;43914;57.680;11.982;2023-02-15T18:03:13;40.40;;;15.50;;
54871;SDS011;43914;57.680;11.982;2023-02-15T18:05:57;40.90;;;16.60;;
54871;SDS011;43914;57.680;11.982;2023-02-15T18:11:26;35.50;;;14.00;;
54871;SDS011;43914;57.680;11.982;2023-02-15T18:14:01;45.10;;;17.10;;
54871;SDS011;43914;57.680;11.982;2023-02-15T18:16:30;38.80;;;14.90;;